createdAt,value
2023-09-23T00:01:05.647Z,5.57
2023-09-23T00:03:38.905Z,7.75
2023-09-23T00:06:09.867Z,10.02
2023-09-23T00:08:38.229Z,7.30
2023-09-23T00:11:06.383Z,11.85
2023-09-23T00:13:36.942Z,6.78
2023-09-23T00:16:09.107Z,6.63
2023-09-23T00:18:37.860Z,6.20
2023-09-23T00:21:06.341Z,7.63
2023-09-23T00:23:34.746Z,12.25
2023-09-23T00:26:04.222Z,7.38
2023-09-23T00:28:32.679Z,4.75
2023-09-23T00:31:11.076Z,10.02
2023-09-23T00:33:40.478Z,6.72
2023-09-23T00:36:09.966Z,8.85
2023-09-23T00:38:38.792Z,8.40
2023-09-23T00:41:09.122Z,7.82
2023-09-23T00:43:37.853Z,7.20
2023-09-23T00:46:07.509Z,8.40
2023-09-23T00:48:39.337Z,8.60
2023-09-23T00:51:08.605Z,10.32
2023-09-23T00:53:40.783Z,8.32
2023-09-23T00:56:10.103Z,5.32
2023-09-23T00:58:38.643Z,6.95
2023-09-23T01:01:40.259Z,10.30
2023-09-23T01:04:14.457Z,6.25
2023-09-23T01:06:42.655Z,6.80
2023-09-23T01:09:17.803Z,7.35
2023-09-23T01:11:46.587Z,14.05
2023-09-23T01:14:15.070Z,7.63
2023-09-23T01:16:43.935Z,7.90
2023-09-23T01:19:15.767Z,6.18
2023-09-23T01:21:43.849Z,10.32
2023-09-23T01:24:13.475Z,8.45
2023-09-23T01:26:41.911Z,8.70
2023-09-23T01:29:12.981Z,6.15
2023-09-23T01:31:41.133Z,11.30
2023-09-23T01:34:10.763Z,7.80
2023-09-23T01:36:38.970Z,7.10
2023-09-23T01:39:08.636Z,5.55
2023-09-23T01:41:37.939Z,8.75
2023-09-23T01:44:07.909Z,6.47
2023-09-23T01:46:36.398Z,8.73
2023-09-23T01:49:05.536Z,7.32
2023-09-23T01:51:33.569Z,10.25
2023-09-23T01:54:01.872Z,15.40
2023-09-23T01:56:32.332Z,13.95
2023-09-23T01:59:02.122Z,21.23
2023-09-23T02:01:31.585Z,19.73
2023-09-23T02:04:00.060Z,25.90
2023-09-23T02:06:35.386Z,26.88
2023-09-23T02:09:03.784Z,34.97
2023-09-23T02:11:32.015Z,40.63
2023-09-23T02:14:02.481Z,44.38
2023-09-23T02:16:30.818Z,53.25
2023-09-23T02:18:59.122Z,55.45
2023-09-23T02:21:28.325Z,52.22
2023-09-23T02:23:58.127Z,53.10
2023-09-23T02:26:26.170Z,52.25
2023-09-23T02:28:54.499Z,60.13
2023-09-23T02:31:24.072Z,61.05
2023-09-23T02:33:52.312Z,67.55
2023-09-23T02:36:20.432Z,76.45
2023-09-23T02:38:49.778Z,71.55
2023-09-23T02:41:18.206Z,63.75
2023-09-23T02:43:46.762Z,76.80
2023-09-23T02:46:16.423Z,76.60
2023-09-23T02:48:48.213Z,71.50
2023-09-23T02:51:16.453Z,66.57
2023-09-23T02:53:45.314Z,69.50
2023-09-23T02:56:13.466Z,68.20
2023-09-23T02:58:41.837Z,73.65
2023-09-23T03:01:15.714Z,74.13
2023-09-23T03:03:44.992Z,68.00
2023-09-23T03:06:16.186Z,72.50
2023-09-23T03:08:48.929Z,71.55
2023-09-23T03:11:19.448Z,61.63
2023-09-23T03:13:50.878Z,68.68
2023-09-23T03:16:29.450Z,70.13
2023-09-23T03:19:11.666Z,60.20
2023-09-23T03:21:42.272Z,73.72
2023-09-23T03:24:12.370Z,75.28
2023-09-23T03:26:41.984Z,71.88
2023-09-23T03:29:10.330Z,73.05
2023-09-23T03:31:38.588Z,83.35
2023-09-23T03:34:08.746Z,76.15
2023-09-23T03:36:36.711Z,76.43
2023-09-23T03:39:07.102Z,72.35
2023-09-23T03:41:35.967Z,76.30
2023-09-23T03:44:04.588Z,56.05
2023-09-23T03:46:32.786Z,54.75
2023-09-23T03:49:02.161Z,52.83
2023-09-23T03:51:32.322Z,50.92
2023-09-23T03:54:00.768Z,52.97
2023-09-23T03:56:31.030Z,55.40
2023-09-23T03:59:00.123Z,47.40
2023-09-23T04:01:28.227Z,61.15
2023-09-23T04:03:57.776Z,60.63
2023-09-23T04:06:26.983Z,69.40
2023-09-23T04:08:56.019Z,67.65
2023-09-23T04:11:24.240Z,57.08
2023-09-23T04:13:54.397Z,69.57
2023-09-23T04:16:23.017Z,63.92
2023-09-23T04:18:53.065Z,53.15
2023-09-23T04:21:23.675Z,47.90
2023-09-23T04:23:53.514Z,48.35
2023-09-23T04:26:22.772Z,39.75
2023-09-23T04:28:53.695Z,35.50
2023-09-23T04:31:25.129Z,44.75
2023-09-23T04:33:53.654Z,42.15
2023-09-23T04:36:22.535Z,32.20
2023-09-23T04:38:51.130Z,41.67
2023-09-23T04:41:19.125Z,40.33
2023-09-23T04:43:49.033Z,41.42
2023-09-23T04:46:18.639Z,41.42
2023-09-23T04:48:47.159Z,38.55
2023-09-23T04:51:15.278Z,38.80
2023-09-23T04:53:43.624Z,30.55
2023-09-23T04:56:13.176Z,36.55
2023-09-23T04:58:43.152Z,34.53
2023-09-23T05:01:15.430Z,33.47
2023-09-23T05:03:45.233Z,31.95
2023-09-23T05:06:13.502Z,31.75
2023-09-23T05:08:41.887Z,31.77
2023-09-23T05:11:12.825Z,28.70
2023-09-23T05:13:42.098Z,26.42
2023-09-23T05:16:10.131Z,25.90
2023-09-23T05:18:38.747Z,21.80
2023-09-23T05:21:10.500Z,23.15
2023-09-23T05:23:41.849Z,21.58
2023-09-23T05:26:10.063Z,24.25
2023-09-23T05:28:38.426Z,20.60
2023-09-23T05:31:06.670Z,19.33
2023-09-23T05:33:34.949Z,23.92
2023-09-23T05:36:04.687Z,20.52
2023-09-23T05:38:37.561Z,23.92
2023-09-23T05:41:05.763Z,22.42
2023-09-23T05:43:34.382Z,25.63
2023-09-23T05:46:06.801Z,22.35
2023-09-23T05:48:35.256Z,24.55
2023-09-23T05:51:07.350Z,24.40
2023-09-23T05:53:37.144Z,21.13
2023-09-23T05:56:05.543Z,21.27
2023-09-23T05:58:33.810Z,22.02
2023-09-23T06:01:02.068Z,20.92
2023-09-23T06:03:30.557Z,21.88
2023-09-23T06:05:59.166Z,25.65
2023-09-23T06:08:27.669Z,19.50
2023-09-23T06:11:06.026Z,18.05
2023-09-23T06:13:35.277Z,21.52
2023-09-23T06:16:04.541Z,35.38
2023-09-23T06:18:33.033Z,17.58
2023-09-23T06:21:01.170Z,20.45
2023-09-23T06:23:29.600Z,19.88
2023-09-23T06:26:02.215Z,18.10
2023-09-23T06:28:31.531Z,17.20
2023-09-23T06:30:59.572Z,24.42
2023-09-23T06:33:27.789Z,34.33
2023-09-23T06:35:55.913Z,22.02
2023-09-23T06:38:24.190Z,25.38
2023-09-23T06:40:56.873Z,28.63
2023-09-23T06:43:26.719Z,27.05
2023-09-23T06:45:55.967Z,29.00
2023-09-23T06:48:25.135Z,28.10
2023-09-23T06:51:00.448Z,28.30
2023-09-23T06:53:28.985Z,53.40
2023-09-23T06:55:57.459Z,27.40
2023-09-23T06:58:27.331Z,34.60
2023-09-23T07:00:56.670Z,27.80
2023-09-23T07:03:25.210Z,30.55
2023-09-23T07:05:53.485Z,30.15
2023-09-23T07:08:21.924Z,25.50
2023-09-23T07:10:51.102Z,23.65
2023-09-23T07:13:20.269Z,24.67
2023-09-23T07:15:49.667Z,32.10
2023-09-23T07:18:18.075Z,35.88
2023-09-23T07:20:46.089Z,23.95
2023-09-23T07:23:14.611Z,30.77
2023-09-23T07:25:43.520Z,23.90
2023-09-23T07:28:11.916Z,23.02
2023-09-23T07:30:40.274Z,21.83
2023-09-23T07:33:09.962Z,18.95
2023-09-23T07:35:38.067Z,20.73
2023-09-23T07:38:06.648Z,15.90
2023-09-23T07:40:34.661Z,17.40
2023-09-23T07:43:02.935Z,16.40
2023-09-23T07:45:31.059Z,34.00
2023-09-23T07:47:59.594Z,14.30
2023-09-23T07:50:29.297Z,15.15
2023-09-23T07:52:57.822Z,10.93
2023-09-23T07:55:25.808Z,10.52
2023-09-23T07:57:54.109Z,63.97
2023-09-23T08:00:23.586Z,18.20
2023-09-23T08:02:53.241Z,6.97
2023-09-23T08:05:25.060Z,7.80
2023-09-23T08:10:22.763Z,5.85
2023-09-23T08:12:51.048Z,6.85
2023-09-23T08:15:19.839Z,6.22
2023-09-23T08:17:48.150Z,8.50
2023-09-23T08:20:21.114Z,6.65
2023-09-23T08:22:50.244Z,6.05
2023-09-23T08:25:19.912Z,17.10
2023-09-23T08:27:48.578Z,9.00
2023-09-23T08:30:17.444Z,7.80
2023-09-23T08:32:46.800Z,7.57
2023-09-23T08:35:14.847Z,5.72
2023-09-23T08:37:46.799Z,8.23
2023-09-23T08:40:17.108Z,6.55
2023-09-23T08:42:49.297Z,6.32
2023-09-23T08:45:17.561Z,7.57
2023-09-23T08:47:46.420Z,4.88
2023-09-23T08:50:14.448Z,11.50
2023-09-23T08:52:43.014Z,5.63
2023-09-23T08:55:13.230Z,4.65
2023-09-23T08:57:41.863Z,4.25
2023-09-23T09:00:14.525Z,4.82
2023-09-23T09:02:42.849Z,6.82
2023-09-23T09:05:11.411Z,7.57
2023-09-23T09:07:40.642Z,9.75
2023-09-23T09:10:09.118Z,8.02
2023-09-23T09:12:37.356Z,8.75
2023-09-23T09:15:06.093Z,9.13
2023-09-23T09:17:35.865Z,8.55
2023-09-23T09:20:07.272Z,10.95
2023-09-23T09:22:37.494Z,11.80
2023-09-23T09:25:06.552Z,13.82
2023-09-23T09:27:37.160Z,14.02
2023-09-23T09:30:13.769Z,13.43
2023-09-23T09:32:45.950Z,12.57
2023-09-23T09:35:15.361Z,15.20
2023-09-23T09:37:45.642Z,24.20
2023-09-23T09:40:18.170Z,16.33
2023-09-23T09:42:51.874Z,16.30
2023-09-23T09:45:21.026Z,13.77
2023-09-23T09:47:51.558Z,15.88
2023-09-23T09:50:20.468Z,12.80
2023-09-23T09:52:48.736Z,13.18
2023-09-23T09:55:19.957Z,10.50
2023-09-23T09:57:49.106Z,10.23
2023-09-23T10:00:25.079Z,10.13
2023-09-23T10:03:01.737Z,8.88
2023-09-23T10:05:37.114Z,7.68
2023-09-23T10:08:14.228Z,7.88
2023-09-23T10:10:48.277Z,6.15
2023-09-23T10:13:17.933Z,6.22
2023-09-23T10:15:46.665Z,7.00
2023-09-23T10:18:18.860Z,5.90
2023-09-23T10:20:50.397Z,6.72
2023-09-23T10:25:52.309Z,5.10
2023-09-23T10:28:23.835Z,5.75
2023-09-23T10:30:59.364Z,5.43
2023-09-23T10:33:32.016Z,4.50
2023-09-23T10:36:00.773Z,5.00
2023-09-23T10:38:32.410Z,4.57
2023-09-23T10:41:00.669Z,5.95
2023-09-23T10:43:29.094Z,5.70
2023-09-23T10:45:58.130Z,5.68
2023-09-23T10:48:29.752Z,6.18
2023-09-23T10:50:57.945Z,5.82
2023-09-23T10:53:28.031Z,5.95
2023-09-23T10:55:56.753Z,5.70
2023-09-23T10:58:25.199Z,6.35
2023-09-23T11:00:54.052Z,6.35
2023-09-23T11:03:22.819Z,8.05
2023-09-23T11:05:52.582Z,5.55
2023-09-23T11:08:20.990Z,4.97
2023-09-23T11:10:50.486Z,4.72
2023-09-23T11:13:19.230Z,5.90
2023-09-23T11:15:47.638Z,5.43
2023-09-23T11:18:17.903Z,5.05
2023-09-23T11:20:47.655Z,5.05
2023-09-23T11:23:19.376Z,4.55
2023-09-23T11:25:48.403Z,4.38
2023-09-23T11:28:18.297Z,6.07
2023-09-23T11:30:46.494Z,5.40
2023-09-23T11:33:15.163Z,6.78
2023-09-23T11:35:44.251Z,6.00
2023-09-23T11:38:13.524Z,7.00
2023-09-23T11:40:44.070Z,10.18
2023-09-23T11:43:12.502Z,6.05
2023-09-23T11:45:40.894Z,7.32
2023-09-23T11:48:10.673Z,6.32
2023-09-23T11:50:39.474Z,6.43
2023-09-23T11:53:08.268Z,6.07
2023-09-23T11:55:37.008Z,5.50
2023-09-23T11:58:06.699Z,5.72
2023-09-23T12:00:35.204Z,5.82
2023-09-23T12:03:04.820Z,5.28
2023-09-23T12:05:33.468Z,6.82
2023-09-23T12:08:02.228Z,6.60
2023-09-23T12:10:31.746Z,8.70
2023-09-23T12:13:06.239Z,10.27
2023-09-23T12:15:36.141Z,9.02
2023-09-23T12:18:06.671Z,10.23
2023-09-23T12:20:34.900Z,10.48
2023-09-23T12:23:03.359Z,11.60
2023-09-23T12:25:31.655Z,16.58
2023-09-23T12:27:59.926Z,15.10
2023-09-23T12:30:28.058Z,14.45
2023-09-23T12:32:57.629Z,14.68
2023-09-23T12:35:25.820Z,15.52
2023-09-23T12:37:54.153Z,13.90
2023-09-23T12:40:22.296Z,15.75
2023-09-23T12:42:50.719Z,14.57
2023-09-23T12:45:18.707Z,10.80
2023-09-23T12:47:56.821Z,11.30
2023-09-23T12:50:27.683Z,15.32
2023-09-23T12:52:56.354Z,13.85
2023-09-23T12:55:24.646Z,26.30
2023-09-23T12:57:54.830Z,19.48
2023-09-23T13:00:23.308Z,19.70
2023-09-23T13:02:52.431Z,13.40
2023-09-23T13:05:21.237Z,13.57
2023-09-23T13:07:50.909Z,17.10
2023-09-23T13:10:19.194Z,16.08
2023-09-23T13:12:47.720Z,25.13
2023-09-23T13:15:16.292Z,29.25
2023-09-23T13:17:44.946Z,20.00
2023-09-23T13:20:13.653Z,25.23
2023-09-23T13:22:42.219Z,12.93
2023-09-23T13:25:13.188Z,11.93
2023-09-23T13:27:41.952Z,10.50
2023-09-23T13:30:11.648Z,10.27
2023-09-23T13:32:40.443Z,9.13
2023-09-23T13:35:10.629Z,9.65
2023-09-23T13:37:39.731Z,11.70
2023-09-23T13:40:09.209Z,14.73
2023-09-23T13:42:38.809Z,13.52
2023-09-23T13:45:08.225Z,11.15
2023-09-23T13:47:38.561Z,13.13
2023-09-23T13:50:08.799Z,10.85
2023-09-23T13:52:37.276Z,10.43
2023-09-23T13:55:07.258Z,8.63
2023-09-23T13:57:35.612Z,9.15
2023-09-23T14:00:05.742Z,10.48
2023-09-23T14:02:34.798Z,12.18
2023-09-23T14:05:03.928Z,10.55
2023-09-23T14:07:33.457Z,10.32
2023-09-23T14:10:14.679Z,13.13
2023-09-23T14:12:47.527Z,9.48
2023-09-23T14:15:16.984Z,62.35
2023-09-23T14:17:45.479Z,8.18
2023-09-23T14:20:14.566Z,7.60
2023-09-23T14:22:46.447Z,6.97
2023-09-23T14:25:18.141Z,6.80
2023-09-23T14:27:46.438Z,8.40
2023-09-23T14:30:16.337Z,7.13
2023-09-23T14:32:44.829Z,7.90
2023-09-23T14:35:13.005Z,8.25
2023-09-23T14:37:41.353Z,8.52
2023-09-23T14:40:11.054Z,5.25
2023-09-23T14:42:39.345Z,7.50
2023-09-23T14:45:08.927Z,6.63
2023-09-23T14:47:39.019Z,5.28
2023-09-23T14:50:07.860Z,8.07
2023-09-23T14:52:36.177Z,6.10
2023-09-23T14:55:06.197Z,7.00
2023-09-23T14:57:34.904Z,6.20
2023-09-23T15:00:03.767Z,3.80
2023-09-23T15:02:32.564Z,6.43
2023-09-23T15:05:02.031Z,4.40
2023-09-23T15:07:30.499Z,5.60
2023-09-23T15:09:58.726Z,5.03
2023-09-23T15:12:26.981Z,5.03
2023-09-23T15:14:55.066Z,5.03
2023-09-23T15:17:24.800Z,6.90
2023-09-23T15:19:53.380Z,9.02
2023-09-23T15:22:23.985Z,9.10
2023-09-23T15:24:52.791Z,9.10
2023-09-23T15:27:21.153Z,7.18
2023-09-23T15:29:49.254Z,8.75
2023-09-23T15:32:17.705Z,8.75
2023-09-23T15:34:45.814Z,6.50
2023-09-23T15:37:17.737Z,7.30
2023-09-23T15:39:48.336Z,7.55
2023-09-23T15:42:18.550Z,8.13
2023-09-23T15:44:46.518Z,12.43
2023-09-23T15:47:14.889Z,7.97
2023-09-23T15:49:44.054Z,6.63
2023-09-23T15:52:13.044Z,8.10
2023-09-23T15:54:41.964Z,7.22
2023-09-23T15:57:11.999Z,7.40
2023-09-23T15:59:40.104Z,8.05
2023-09-23T16:02:08.965Z,9.40
2023-09-23T16:04:37.157Z,12.90
2023-09-23T16:07:05.486Z,10.35
2023-09-23T16:09:34.376Z,9.50
2023-09-23T16:12:03.109Z,9.45
2023-09-23T16:14:32.474Z,7.03
2023-09-23T16:17:00.882Z,6.70
2023-09-23T16:19:29.715Z,6.97
2023-09-23T16:21:58.609Z,6.13
2023-09-23T16:24:26.635Z,7.03
2023-09-23T16:26:55.469Z,9.07
2023-09-23T16:29:23.479Z,7.57
2023-09-23T16:31:53.055Z,7.57
2023-09-23T16:34:21.137Z,8.13
2023-09-23T16:36:49.451Z,8.77
2023-09-23T16:39:17.441Z,5.03
2023-09-23T16:41:46.006Z,5.10
2023-09-23T16:44:13.996Z,5.53
2023-09-23T16:46:42.280Z,5.82
2023-09-23T16:49:11.874Z,4.50
2023-09-23T16:51:40.145Z,7.72
2023-09-23T16:54:08.220Z,6.85
2023-09-23T16:56:36.688Z,5.75
2023-09-23T16:59:04.889Z,6.10
2023-09-23T17:01:33.175Z,5.78
2023-09-23T17:04:01.391Z,6.07
2023-09-23T17:06:30.981Z,10.23
2023-09-23T17:08:59.347Z,5.35
2023-09-23T17:11:28.215Z,6.45
2023-09-23T17:13:56.694Z,9.50
2023-09-23T17:16:25.044Z,11.00
2023-09-23T17:18:53.255Z,8.50
2023-09-23T17:21:21.978Z,5.72
2023-09-23T17:23:52.794Z,7.40
2023-09-23T17:26:21.387Z,7.87
2023-09-23T17:28:49.503Z,7.45
2023-09-23T17:31:17.905Z,9.98
2023-09-23T17:33:46.177Z,8.80
2023-09-23T17:36:14.596Z,9.00
2023-09-23T17:38:42.590Z,8.63
2023-09-23T17:41:15.008Z,9.23
2023-09-23T17:43:43.123Z,7.80
2023-09-23T17:46:11.410Z,9.65
2023-09-23T17:48:39.932Z,9.35
2023-09-23T17:51:08.993Z,10.50
2023-09-23T17:53:37.123Z,15.20
2023-09-23T17:56:05.692Z,11.48
2023-09-23T17:58:35.326Z,10.18
2023-09-23T18:01:04.133Z,12.15
2023-09-23T18:03:35.086Z,10.52
2023-09-23T18:06:03.728Z,13.98
2023-09-23T18:08:31.850Z,14.23
2023-09-23T18:11:00.132Z,15.02
2023-09-23T18:13:29.731Z,12.18
2023-09-23T18:15:59.398Z,12.57
2023-09-23T18:18:29.189Z,11.65
2023-09-23T18:20:57.718Z,10.98
2023-09-23T18:23:25.886Z,13.07
2023-09-23T18:25:54.213Z,11.60
2023-09-23T18:28:22.589Z,10.75
2023-09-23T18:30:50.883Z,11.88
2023-09-23T18:33:20.274Z,13.57
2023-09-23T18:35:49.106Z,15.95
2023-09-23T18:38:17.154Z,14.93
2023-09-23T18:40:45.877Z,15.00
2023-09-23T18:43:14.120Z,15.18
2023-09-23T18:45:43.924Z,18.42
2023-09-23T18:48:24.311Z,13.90
2023-09-23T18:50:56.095Z,22.38
2023-09-23T18:53:24.552Z,14.73
2023-09-23T18:55:53.104Z,17.20
2023-09-23T18:58:20.827Z,19.08
2023-09-23T19:00:49.346Z,20.83
2023-09-23T19:03:18.386Z,19.05
2023-09-23T19:05:49.266Z,19.13
2023-09-23T19:08:18.765Z,14.85
2023-09-23T19:10:48.269Z,17.70
2023-09-23T19:13:16.532Z,19.35
2023-09-23T19:15:48.702Z,20.33
2023-09-23T19:20:45.522Z,22.23
2023-09-23T19:23:15.365Z,17.52
2023-09-23T19:25:45.054Z,25.17
2023-09-23T19:28:13.225Z,16.67
2023-09-23T19:30:41.466Z,16.23
2023-09-23T19:33:09.576Z,18.35
2023-09-23T19:35:39.493Z,19.67
2023-09-23T19:38:07.978Z,21.40
2023-09-23T19:40:39.130Z,20.92
2023-09-23T19:43:08.620Z,18.05
2023-09-23T19:45:36.933Z,18.58
2023-09-23T19:48:05.292Z,18.55
2023-09-23T19:50:35.437Z,20.63
2023-09-23T19:53:03.563Z,25.33
2023-09-23T19:55:32.610Z,20.33
2023-09-23T19:58:00.602Z,25.02
2023-09-23T20:00:31.023Z,22.65
2023-09-23T20:02:59.789Z,22.33
2023-09-23T20:05:28.206Z,20.10
2023-09-23T20:07:56.256Z,26.73
2023-09-23T20:10:24.720Z,28.23
2023-09-23T20:12:52.830Z,29.10
2023-09-23T20:15:21.134Z,28.77
2023-09-23T20:17:51.758Z,29.67
2023-09-23T20:20:20.551Z,27.85
2023-09-23T20:22:48.498Z,31.40
2023-09-23T20:25:17.080Z,34.33
2023-09-23T20:27:45.330Z,34.08
2023-09-23T20:30:15.549Z,33.60
2023-09-23T20:32:44.103Z,36.08
2023-09-23T20:35:13.979Z,42.10
2023-09-23T20:37:42.926Z,30.77
2023-09-23T20:40:14.146Z,35.97
2023-09-23T20:42:43.009Z,40.28
2023-09-23T20:45:12.993Z,35.95
2023-09-23T20:47:42.068Z,37.30
2023-09-23T20:50:11.281Z,42.05
2023-09-23T20:52:41.881Z,32.72
2023-09-23T20:55:10.672Z,38.95
2023-09-23T20:57:38.769Z,32.83
2023-09-23T21:00:11.537Z,36.55
2023-09-23T21:02:39.990Z,38.28
2023-09-23T21:05:09.627Z,37.00
2023-09-23T21:07:37.577Z,45.60
2023-09-23T21:10:08.365Z,39.58
2023-09-23T21:12:36.387Z,42.85
2023-09-23T21:15:06.564Z,40.03
2023-09-23T21:17:35.992Z,42.92
2023-09-23T21:20:04.460Z,43.08
2023-09-23T21:22:32.509Z,41.33
2023-09-23T21:25:00.988Z,40.70
2023-09-23T21:27:30.320Z,39.63
2023-09-23T21:29:58.592Z,42.47
2023-09-23T21:32:27.191Z,40.80
2023-09-23T21:34:55.957Z,35.78
2023-09-23T21:37:24.789Z,41.42
2023-09-23T21:39:54.199Z,39.80
2023-09-23T21:42:22.252Z,35.60
2023-09-23T21:44:51.914Z,39.70
2023-09-23T21:47:20.360Z,37.03
2023-09-23T21:49:48.882Z,34.55
2023-09-23T21:52:16.889Z,39.72
2023-09-23T21:54:45.517Z,33.83
2023-09-23T21:57:13.814Z,37.55
2023-09-23T21:59:42.674Z,35.90
2023-09-23T22:02:12.040Z,33.65
2023-09-23T22:04:40.373Z,35.83
2023-09-23T22:07:08.299Z,34.83
2023-09-23T22:09:36.656Z,35.55
2023-09-23T22:12:05.746Z,30.50
2023-09-23T22:14:35.571Z,39.33
2023-09-23T22:17:03.708Z,34.72
2023-09-23T22:19:33.410Z,39.65
2023-09-23T22:22:02.094Z,32.20
2023-09-23T22:24:30.345Z,38.80
2023-09-23T22:26:58.333Z,40.47
2023-09-23T22:29:28.248Z,38.45
2023-09-23T22:31:57.611Z,39.78
2023-09-23T22:34:26.077Z,36.85
2023-09-23T22:36:55.683Z,39.88
2023-09-23T22:39:24.685Z,36.92
2023-09-23T22:41:53.466Z,40.05
2023-09-23T22:44:21.826Z,53.58
2023-09-23T22:46:50.039Z,44.20
2023-09-23T22:49:18.324Z,45.75
2023-09-23T22:51:46.342Z,35.10
2023-09-23T22:54:16.285Z,42.42
2023-09-23T22:56:44.298Z,46.42
2023-09-23T22:59:12.615Z,49.15
2023-09-23T23:01:41.822Z,42.45
2023-09-23T23:04:10.150Z,54.60
2023-09-23T23:06:39.218Z,50.08
2023-09-23T23:09:08.886Z,53.03
2023-09-23T23:11:38.380Z,45.75
2023-09-23T23:14:07.394Z,51.60
2023-09-23T23:16:38.783Z,52.25
2023-09-23T23:19:07.526Z,48.72
2023-09-23T23:21:35.594Z,59.30
2023-09-23T23:24:04.858Z,60.63
2023-09-23T23:26:32.897Z,59.13
2023-09-23T23:29:03.629Z,56.03
2023-09-23T23:31:31.927Z,56.28
2023-09-23T23:34:00.194Z,50.08
2023-09-23T23:36:28.334Z,57.40
2023-09-23T23:38:56.621Z,63.55
2023-09-23T23:41:24.688Z,58.13
2023-09-23T23:43:53.083Z,68.00
2023-09-23T23:46:23.168Z,63.85
2023-09-23T23:48:52.053Z,74.93
2023-09-23T23:51:25.220Z,74.07
2023-09-23T23:53:53.665Z,61.20
2023-09-23T23:56:21.681Z,74.65
2023-09-23T23:58:51.577Z,105.30
